Time;durP1;ratioP1;P1;durP2;ratioP2;P2;SDS_P1;SDS_P2;PMS_P1;PMS_P2;Temp;Humidity;BMP_temperature;BMP_pressure;BME280_temperature;BME280_humidity;BME280_pressure;Samples;Min_cycle;Max_cycle;Signal;HPM_P1;HPM_P2
2021/10/16 00:00:50;;;;;;;;;9.33;9.33;;;;;;;;5041013;28;9362;-77
2021/10/16 00:03:18;;;;;;;;;9.00;9.00;;;;;;;;5024190;28;9340;-78
2021/10/16 00:05:46;;;;;;;;;9.00;9.00;;;;;;;;5042300;28;10288;-78
2021/10/16 00:08:13;;;;;;;;;14.67;11.00;;;;;;;;5040580;28;9266;-79
2021/10/16 00:10:41;;;;;;;;;12.67;10.00;;;;;;;;5041279;28;9321;-80
2021/10/16 00:13:08;;;;;;;;;9.67;9.67;;;;;;;;5041621;28;9318;-75
2021/10/16 00:15:36;;;;;;;;;13.67;13.67;;;;;;;;5022856;28;9271;-75
2021/10/16 00:18:03;;;;;;;;;10.00;10.00;;;;;;;;5043325;28;9335;-75
2021/10/16 00:20:32;;;;;;;;;11.00;11.00;;;;;;;;5040874;28;9338;-77
2021/10/16 00:22:59;;;;;;;;;13.33;10.33;;;;;;;;5041312;28;9898;-76
2021/10/16 00:25:26;;;;;;;;;11.67;9.67;;;;;;;;5038306;28;9259;-80
2021/10/16 00:27:54;;;;;;;;;12.33;12.33;;;;;;;;5043394;28;9281;-78
2021/10/16 00:30:21;;;;;;;;;8.67;7.00;;;;;;;;5000576;28;10125;-76
2021/10/16 00:32:48;;;;;;;;;13.33;12.33;;;;;;;;5036099;28;9192;-76
2021/10/16 00:35:16;;;;;;;;;14.33;12.00;;;;;;;;5045190;28;9267;-77
2021/10/16 00:37:44;;;;;;;;;15.00;14.00;;;;;;;;5043234;28;9252;-77
2021/10/16 00:40:12;;;;;;;;;16.33;15.00;;;;;;;;5044426;28;9337;-76
2021/10/16 00:42:47;;;;;;;;;12.33;10.67;;;;;;;;5025394;28;9258;-77
2021/10/16 00:45:14;;;;;;;;;8.67;8.67;;;;;;;;5043405;28;9018;-76
2021/10/16 00:47:41;;;;;;;;;10.33;9.67;;;;;;;;5043229;28;9247;-77
2021/10/16 00:50:10;;;;;;;;;13.33;13.33;;;;;;;;5044922;28;9422;-77
2021/10/16 00:52:39;;;;;;;;;15.00;12.33;;;;;;;;5031066;28;9262;-80
2021/10/16 00:55:10;;;;;;;;;12.67;12.67;;;;;;;;5042331;28;9422;-76
2021/10/16 00:57:37;;;;;;;;;9.67;9.67;;;;;;;;5039311;28;9386;-77
2021/10/16 01:00:06;;;;;;;;;11.00;11.00;;;;;;;;5042220;28;9302;-80
2021/10/16 01:02:34;;;;;;;;;13.67;13.67;;;;;;;;5046163;28;9357;-78
2021/10/16 01:05:01;;;;;;;;;9.67;9.67;;;;;;;;5045286;28;9396;-80
2021/10/16 01:07:30;;;;;;;;;12.00;12.00;;;;;;;;5045211;28;9531;-81
2021/10/16 01:09:58;;;;;;;;;14.00;13.75;;;;;;;;5022635;28;9398;-76
2021/10/16 01:12:28;;;;;;;;;10.75;10.75;;;;;;;;5044245;28;9491;-78
2021/10/16 01:14:57;;;;;;;;;11.33;10.00;;;;;;;;5043677;28;9521;-77
2021/10/16 01:17:25;;;;;;;;;16.00;14.25;;;;;;;;5043989;28;9367;-78
2021/10/16 01:19:55;;;;;;;;;9.67;9.67;;;;;;;;5043654;28;9471;-75
2021/10/16 01:22:24;;;;;;;;;15.00;8.00;;;;;;;;5044532;28;9412;-76
2021/10/16 01:24:52;;;;;;;;;13.33;13.33;;;;;;;;5046759;28;9460;-78
2021/10/16 01:27:20;;;;;;;;;10.50;10.50;;;;;;;;5042922;28;9480;-79
2021/10/16 01:29:49;;;;;;;;;14.75;12.75;;;;;;;;5043072;28;9589;-78
2021/10/16 01:32:16;;;;;;;;;12.75;12.75;;;;;;;;5042775;28;9513;-75
2021/10/16 01:34:44;;;;;;;;;17.00;15.50;;;;;;;;5044424;28;10392;-77
2021/10/16 01:37:11;;;;;;;;;14.50;14.50;;;;;;;;5027186;28;9620;-80
2021/10/16 01:39:40;;;;;;;;;18.00;15.00;;;;;;;;5040532;28;9727;-77
2021/10/16 01:42:12;;;;;;;;;13.50;13.00;;;;;;;;5025316;28;9638;-81
2021/10/16 01:44:40;;;;;;;;;15.50;12.50;;;;;;;;5043331;28;9544;-80
2021/10/16 01:47:08;;;;;;;;;10.00;9.50;;;;;;;;5043269;28;10520;-77
2021/10/16 01:49:36;;;;;;;;;13.75;13.75;;;;;;;;5043895;28;9817;-79
2021/10/16 01:52:05;;;;;;;;;13.00;10.75;;;;;;;;5042583;28;10481;-77
2021/10/16 01:54:32;;;;;;;;;9.50;9.00;;;;;;;;5044619;28;9669;-76
2021/10/16 01:57:01;;;;;;;;;11.50;11.50;;;;;;;;5043900;28;9479;-76
2021/10/16 01:59:29;;;;;;;;;15.50;13.25;;;;;;;;5043637;28;9782;-80
2021/10/16 02:01:57;;;;;;;;;14.25;9.50;;;;;;;;5043403;28;9417;-79
2021/10/16 02:04:24;;;;;;;;;19.25;12.00;;;;;;;;5042766;28;9659;-76
2021/10/16 02:06:52;;;;;;;;;13.75;11.50;;;;;;;;5043288;28;9622;-76
2021/10/16 02:09:19;;;;;;;;;14.50;13.00;;;;;;;;5042001;28;10630;-76
2021/10/16 02:11:46;;;;;;;;;15.75;12.75;;;;;;;;5042660;28;9713;-77
2021/10/16 02:14:15;;;;;;;;;14.50;14.50;;;;;;;;5041011;28;9647;-80
2021/10/16 02:16:42;;;;;;;;;13.75;12.75;;;;;;;;5044061;28;9643;-78
2021/10/16 02:19:10;;;;;;;;;11.00;9.50;;;;;;;;5042263;28;9702;-80
2021/10/16 02:21:37;;;;;;;;;14.50;12.00;;;;;;;;5042498;28;9726;-76
2021/10/16 02:24:05;;;;;;;;;13.00;11.25;;;;;;;;5044019;28;9795;-76
2021/10/16 02:26:32;;;;;;;;;15.75;14.00;;;;;;;;5042261;28;9887;-77
2021/10/16 02:29:00;;;;;;;;;10.00;9.50;;;;;;;;5043082;28;9753;-77
2021/10/16 02:31:28;;;;;;;;;8.75;8.75;;;;;;;;5041292;28;9744;-80
2021/10/16 02:33:56;;;;;;;;;12.00;12.00;;;;;;;;5043307;28;9881;-80
2021/10/16 02:36:23;;;;;;;;;8.00;8.00;;;;;;;;5044001;28;9790;-78
2021/10/16 02:38:50;;;;;;;;;11.75;11.50;;;;;;;;5042138;28;9908;-80
2021/10/16 02:41:17;;;;;;;;;12.75;12.00;;;;;;;;5042131;28;9902;-78
2021/10/16 02:43:45;;;;;;;;;13.75;12.25;;;;;;;;5021809;28;9957;-77
2021/10/16 02:46:12;;;;;;;;;14.00;9.75;;;;;;;;5042597;28;10083;-78
2021/10/16 02:48:41;;;;;;;;;13.00;10.00;;;;;;;;5042150;28;10257;-79
2021/10/16 02:51:08;;;;;;;;;14.00;14.00;;;;;;;;5042665;28;9951;-78
2021/10/16 02:53:36;;;;;;;;;9.00;9.00;;;;;;;;5042974;28;10219;-77
2021/10/16 02:56:03;;;;;;;;;17.00;14.00;;;;;;;;5042415;28;10221;-80
2021/10/16 02:58:31;;;;;;;;;12.25;11.00;;;;;;;;5043260;28;10305;-79
2021/10/16 03:00:58;;;;;;;;;18.25;17.00;;;;;;;;5041327;28;10168;-77
2021/10/16 03:03:25;;;;;;;;;10.75;8.75;;;;;;;;5048635;28;10378;-77
2021/10/16 03:05:54;;;;;;;;;13.00;11.00;;;;;;;;5042196;28;10188;-80
2021/10/16 03:08:21;;;;;;;;;12.75;12.50;;;;;;;;5042758;28;10463;-77
2021/10/16 03:10:48;;;;;;;;;15.75;14.25;;;;;;;;5041629;28;11247;-81
2021/10/16 03:13:15;;;;;;;;;17.00;15.50;;;;;;;;5023201;28;10260;-81
2021/10/16 03:15:43;;;;;;;;;15.00;14.25;;;;;;;;5042265;28;10313;-80
2021/10/16 03:18:10;;;;;;;;;15.00;10.00;;;;;;;;5042417;28;11023;-76
2021/10/16 03:20:37;;;;;;;;;19.00;14.00;;;;;;;;5041664;28;10259;-77
2021/10/16 03:23:07;;;;;;;;;20.25;14.25;;;;;;;;5041564;28;10307;-78
2021/10/16 03:25:34;;;;;;;;;12.00;11.00;;;;;;;;5042739;28;10318;-78
2021/10/16 03:28:02;;;;;;;;;14.00;12.00;;;;;;;;5041347;28;10211;-77
2021/10/16 03:30:29;;;;;;;;;13.50;12.00;;;;;;;;5041088;28;10216;-80
2021/10/16 03:32:56;;;;;;;;;16.00;13.75;;;;;;;;5042735;28;10126;-80
2021/10/16 03:35:24;;;;;;;;;13.50;13.50;;;;;;;;5042054;28;10200;-79
2021/10/16 03:37:51;;;;;;;;;12.25;12.25;;;;;;;;5042412;28;10178;-75
2021/10/16 03:40:20;;;;;;;;;14.25;13.75;;;;;;;;5040161;28;10134;-75
2021/10/16 03:42:47;;;;;;;;;15.25;13.25;;;;;;;;5042852;28;10181;-76
2021/10/16 03:45:15;;;;;;;;;18.50;14.50;;;;;;;;5038797;28;10297;-80
2021/10/16 03:47:42;;;;;;;;;16.25;13.00;;;;;;;;5041759;28;10293;-77
2021/10/16 03:50:10;;;;;;;;;16.00;15.75;;;;;;;;5041665;28;10106;-80
2021/10/16 03:52:37;;;;;;;;;14.25;11.25;;;;;;;;5041579;28;10228;-76
2021/10/16 03:55:05;;;;;;;;;15.00;15.00;;;;;;;;5043796;28;10122;-77
2021/10/16 03:57:33;;;;;;;;;14.25;9.00;;;;;;;;5041815;28;10196;-75
2021/10/16 04:00:02;;;;;;;;;16.00;13.50;;;;;;;;5042396;28;9940;-77
2021/10/16 04:02:29;;;;;;;;;13.75;12.75;;;;;;;;5040270;28;10125;-76
2021/10/16 04:04:57;;;;;;;;;10.00;10.00;;;;;;;;5050374;28;10029;-76
2021/10/16 04:07:26;;;;;;;;;14.00;11.75;;;;;;;;5045966;28;10151;-78
2021/10/16 04:09:54;;;;;;;;;12.00;9.25;;;;;;;;5046740;28;10061;-77
2021/10/16 04:12:21;;;;;;;;;15.75;14.00;;;;;;;;5047171;28;10074;-81
2021/10/16 04:14:50;;;;;;;;;10.00;10.00;;;;;;;;5043985;28;10119;-76
2021/10/16 04:17:17;;;;;;;;;14.75;14.50;;;;;;;;5045143;28;10127;-78
2021/10/16 04:19:44;;;;;;;;;20.75;14.50;;;;;;;;5029089;28;10048;-78
2021/10/16 04:22:12;;;;;;;;;16.50;14.75;;;;;;;;5045600;28;10048;-80
2021/10/16 04:24:39;;;;;;;;;16.00;16.00;;;;;;;;5044599;28;10248;-78
2021/10/16 04:27:06;;;;;;;;;20.50;17.00;;;;;;;;5046419;28;10141;-77
2021/10/16 04:29:33;;;;;;;;;21.75;20.00;;;;;;;;5045275;28;10389;-77
2021/10/16 04:32:03;;;;;;;;;20.25;18.25;;;;;;;;5043913;28;10341;-79
2021/10/16 04:34:30;;;;;;;;;16.25;16.25;;;;;;;;5029040;28;10414;-78
2021/10/16 04:36:58;;;;;;;;;22.50;16.50;;;;;;;;5044010;28;10221;-78
2021/10/16 04:39:26;;;;;;;;;16.25;14.50;;;;;;;;5061892;28;10121;-77
2021/10/16 04:41:54;;;;;;;;;16.00;13.25;;;;;;;;5071374;28;10155;-76
2021/10/16 04:44:21;;;;;;;;;14.00;13.75;;;;;;;;5064989;28;10268;-81
2021/10/16 04:46:49;;;;;;;;;16.25;14.25;;;;;;;;5064164;28;10147;-80
2021/10/16 04:49:18;;;;;;;;;20.00;14.25;;;;;;;;5064042;28;10223;-80
2021/10/16 04:51:45;;;;;;;;;9.50;7.50;;;;;;;;5065675;28;10988;-78
2021/10/16 04:54:13;;;;;;;;;14.50;13.25;;;;;;;;5062932;28;10191;-81
2021/10/16 04:56:40;;;;;;;;;13.75;13.75;;;;;;;;5063819;28;10302;-78
2021/10/16 04:59:07;;;;;;;;;17.50;17.00;;;;;;;;5053397;28;10512;-76
2021/10/16 05:01:35;;;;;;;;;17.50;11.75;;;;;;;;5064880;28;10407;-78
2021/10/16 05:04:02;;;;;;;;;12.50;8.00;;;;;;;;5064716;28;10349;-77
2021/10/16 05:06:34;;;;;;;;;14.25;14.25;;;;;;;;5065176;28;10635;-78
2021/10/16 05:09:02;;;;;;;;;11.00;11.00;;;;;;;;5064687;28;10563;-78
2021/10/16 05:11:29;;;;;;;;;11.75;11.75;;;;;;;;5061270;28;11271;-79
2021/10/16 05:13:56;;;;;;;;;12.75;12.75;;;;;;;;5063463;28;10914;-78
2021/10/16 05:16:24;;;;;;;;;19.25;16.50;;;;;;;;5064058;28;10776;-76
2021/10/16 05:18:51;;;;;;;;;15.50;15.50;;;;;;;;5065110;28;11175;-79
2021/10/16 05:21:18;;;;;;;;;16.25;15.75;;;;;;;;5064384;28;10956;-80
2021/10/16 05:23:47;;;;;;;;;17.50;14.75;;;;;;;;5062877;28;11196;-80
2021/10/16 05:26:14;;;;;;;;;17.25;14.00;;;;;;;;5062712;28;11830;-76
2021/10/16 05:28:41;;;;;;;;;15.25;14.75;;;;;;;;5061001;28;11165;-80
2021/10/16 05:31:08;;;;;;;;;15.00;13.25;;;;;;;;5062509;28;11159;-78
2021/10/16 05:33:36;;;;;;;;;17.25;17.25;;;;;;;;5062329;28;11865;-77
2021/10/16 05:36:07;;;;;;;;;12.50;11.50;;;;;;;;5063080;28;11125;-76
2021/10/16 05:38:35;;;;;;;;;16.00;16.00;;;;;;;;5067774;28;11182;-80
2021/10/16 05:41:03;;;;;;;;;14.50;13.50;;;;;;;;5064444;28;11537;-77
2021/10/16 05:43:31;;;;;;;;;16.75;14.50;;;;;;;;5064426;28;11295;-81
2021/10/16 05:45:59;;;;;;;;;19.75;19.75;;;;;;;;5062972;28;11509;-76
2021/10/16 05:48:26;;;;;;;;;20.00;20.00;;;;;;;;5059703;28;11526;-78
2021/10/16 05:50:54;;;;;;;;;17.25;16.50;;;;;;;;5060923;28;11665;-79
2021/10/16 05:53:21;;;;;;;;;17.00;13.00;;;;;;;;5063616;28;11535;-77
2021/10/16 05:55:48;;;;;;;;;18.25;12.00;;;;;;;;5062039;28;11528;-79
2021/10/16 05:58:17;;;;;;;;;16.50;16.50;;;;;;;;5063449;28;11515;-81
2021/10/16 06:00:44;;;;;;;;;15.00;14.75;;;;;;;;5061112;28;11546;-77
2021/10/16 06:03:11;;;;;;;;;18.50;18.50;;;;;;;;5063739;28;11535;-79
2021/10/16 06:05:40;;;;;;;;;19.75;17.25;;;;;;;;5063804;28;11486;-77
2021/10/16 06:08:07;;;;;;;;;23.00;20.00;;;;;;;;5062572;28;11627;-77
2021/10/16 06:10:34;;;;;;;;;14.00;12.50;;;;;;;;5064131;28;11515;-79
2021/10/16 06:13:02;;;;;;;;;16.75;15.25;;;;;;;;5063527;28;11632;-83
2021/10/16 06:15:31;;;;;;;;;17.00;17.00;;;;;;;;5064098;28;11523;-78
2021/10/16 06:17:58;;;;;;;;;22.25;19.50;;;;;;;;5061228;28;11534;-81
2021/10/16 06:20:30;;;;;;;;;20.50;16.50;;;;;;;;5060412;28;11509;-80
2021/10/16 06:22:57;;;;;;;;;20.75;18.25;;;;;;;;5061021;28;11517;-78
2021/10/16 06:25:25;;;;;;;;;23.25;21.25;;;;;;;;5058244;28;11598;-77
2021/10/16 06:27:53;;;;;;;;;21.50;19.75;;;;;;;;5062053;28;12296;-77
2021/10/16 06:30:20;;;;;;;;;16.50;13.00;;;;;;;;5059552;28;12482;-76
2021/10/16 06:32:49;;;;;;;;;13.50;13.50;;;;;;;;5062429;28;11636;-77
2021/10/16 06:35:16;;;;;;;;;18.25;17.50;;;;;;;;5060850;28;11502;-80
2021/10/16 06:37:43;;;;;;;;;13.00;13.00;;;;;;;;5060173;28;12267;-81
2021/10/16 06:40:11;;;;;;;;;19.50;17.25;;;;;;;;5042879;28;11480;-78
2021/10/16 06:42:39;;;;;;;;;16.75;16.75;;;;;;;;5041449;28;11528;-75
2021/10/16 06:45:07;;;;;;;;;26.75;22.00;;;;;;;;5042344;28;11523;-74
2021/10/16 06:47:34;;;;;;;;;23.00;19.00;;;;;;;;5041095;28;11509;-75
2021/10/16 06:50:07;;;;;;;;;26.00;21.50;;;;;;;;5040990;28;11515;-73
2021/10/16 06:52:34;;;;;;;;;14.50;14.50;;;;;;;;5041566;28;11486;-72
2021/10/16 06:55:01;;;;;;;;;20.00;20.00;;;;;;;;5040538;28;11499;-74
2021/10/16 06:57:28;;;;;;;;;23.25;21.25;;;;;;;;5026238;28;12608;-73
2021/10/16 06:59:56;;;;;;;;;22.75;22.25;;;;;;;;5042861;28;11492;-73
2021/10/16 07:02:23;;;;;;;;;27.25;25.00;;;;;;;;5047039;28;11298;-73
2021/10/16 07:04:51;;;;;;;;;31.50;30.00;;;;;;;;5041810;28;11506;-73
2021/10/16 07:07:20;;;;;;;;;36.25;30.75;;;;;;;;5042523;28;11528;-74
2021/10/16 07:09:54;;;;;;;;;23.50;22.25;;;;;;;;5042577;28;11545;-75
2021/10/16 07:12:26;;;;;;;;;31.00;27.00;;;;;;;;5040339;28;11511;-75
2021/10/16 07:14:54;;;;;;;;;23.00;23.00;;;;;;;;5041486;28;11557;-76
2021/10/16 07:17:21;;;;;;;;;29.75;25.50;;;;;;;;5041326;28;11225;-75
2021/10/16 07:19:50;;;;;;;;;25.50;25.50;;;;;;;;5042502;28;11293;-73
2021/10/16 07:22:19;;;;;;;;;30.50;29.50;;;;;;;;5041117;28;11247;-74
2021/10/16 07:24:47;;;;;;;;;29.50;25.75;;;;;;;;5043757;28;11310;-74
2021/10/16 07:27:14;;;;;;;;;19.00;17.50;;;;;;;;5041018;28;11077;-77
2021/10/16 07:29:42;;;;;;;;;25.50;24.25;;;;;;;;5043679;28;11205;-74
2021/10/16 07:32:09;;;;;;;;;24.50;23.25;;;;;;;;5044340;28;10880;-74
2021/10/16 07:34:36;;;;;;;;;26.00;24.25;;;;;;;;5042085;28;11070;-74
2021/10/16 07:37:03;;;;;;;;;26.25;24.25;;;;;;;;5040900;28;11634;-74
2021/10/16 07:39:32;;;;;;;;;27.75;26.25;;;;;;;;5060328;28;11112;-75
2021/10/16 07:42:00;;;;;;;;;22.50;21.00;;;;;;;;5062901;28;10990;-74
2021/10/16 07:44:27;;;;;;;;;25.25;25.25;;;;;;;;5062803;28;11617;-74
2021/10/16 07:46:55;;;;;;;;;30.25;27.75;;;;;;;;5065624;28;11117;-73
2021/10/16 07:49:22;;;;;;;;;38.00;31.50;;;;;;;;5065542;28;11004;-74
2021/10/16 07:51:50;;;;;;;;;28.75;28.75;;;;;;;;5065287;28;12049;-74
2021/10/16 07:54:18;;;;;;;;;24.25;24.25;;;;;;;;5063749;28;11263;-73
2021/10/16 07:56:47;;;;;;;;;32.00;31.25;;;;;;;;5065659;28;11144;-72
2021/10/16 07:59:14;;;;;;;;;40.50;32.25;;;;;;;;5058916;28;11542;-74
2021/10/16 08:01:41;;;;;;;;;48.00;42.25;;;;;;;;5065753;28;12462;-73
2021/10/16 08:04:09;;;;;;;;;33.00;32.50;;;;;;;;5066476;28;12327;-73
2021/10/16 08:06:37;;;;;;;;;57.50;43.50;;;;;;;;5065157;28;11587;-74
2021/10/16 08:09:05;;;;;;;;;28.50;28.50;;;;;;;;5062975;28;11662;-73
2021/10/16 08:11:32;;;;;;;;;41.25;37.25;;;;;;;;5068885;28;11439;-75
2021/10/16 08:14:01;;;;;;;;;36.25;36.00;;;;;;;;5064516;28;12317;-74
2021/10/16 08:16:28;;;;;;;;;39.25;36.25;;;;;;;;5065719;28;11517;-74
2021/10/16 08:18:56;;;;;;;;;34.75;31.50;;;;;;;;5065256;28;11550;-74
2021/10/16 08:21:23;;;;;;;;;34.25;32.00;;;;;;;;5066585;28;11942;-75
2021/10/16 08:23:50;;;;;;;;;30.75;30.75;;;;;;;;5065888;28;11997;-75
2021/10/16 08:26:22;;;;;;;;;39.25;35.50;;;;;;;;5062452;28;11544;-74
2021/10/16 08:28:49;;;;;;;;;36.50;29.75;;;;;;;;5055426;28;11181;-76
2021/10/16 08:31:18;;;;;;;;;35.00;29.75;;;;;;;;5062123;28;10963;-73
2021/10/16 08:33:46;;;;;;;;;34.75;29.00;;;;;;;;5061088;28;10759;-74
2021/10/16 08:36:14;;;;;;;;;26.00;26.00;;;;;;;;5061346;28;10836;-74
2021/10/16 08:38:41;;;;;;;;;25.50;23.25;;;;;;;;5052316;28;10702;-73
2021/10/16 08:41:10;;;;;;;;;25.00;22.00;;;;;;;;5024640;28;10447;-73
2021/10/16 08:43:38;;;;;;;;;29.50;27.50;;;;;;;;5041133;28;10445;-73
2021/10/16 08:46:05;;;;;;;;;28.50;25.75;;;;;;;;5037242;28;10429;-73
2021/10/16 08:48:34;;;;;;;;;29.00;25.25;;;;;;;;5040548;28;10427;-73
2021/10/16 08:51:03;;;;;;;;;31.75;31.25;;;;;;;;5038970;28;10353;-73
2021/10/16 08:53:31;;;;;;;;;34.75;30.25;;;;;;;;5038564;28;10454;-73
2021/10/16 08:56:04;;;;;;;;;41.25;32.75;;;;;;;;5041159;28;10516;-72
2021/10/16 08:58:32;;;;;;;;;33.75;28.75;;;;;;;;5040875;28;10554;-74
2021/10/16 09:01:06;;;;;;;;;26.00;23.50;;;;;;;;5040481;28;10093;-74
2021/10/16 09:03:40;;;;;;;;;28.25;27.00;;;;;;;;5041723;28;10225;-73
2021/10/16 09:06:11;;;;;;;;;29.50;27.50;;;;;;;;5041612;28;10102;-74
2021/10/16 09:08:41;;;;;;;;;29.75;22.25;;;;;;;;5040492;28;10127;-75
2021/10/16 09:11:22;;;;;;;;;30.00;24.00;;;;;;;;5039319;28;9900;-74
2021/10/16 09:13:52;;;;;;;;;25.50;22.00;;;;;;;;5041155;28;9893;-74
2021/10/16 09:16:24;;;;;;;;;23.25;22.00;;;;;;;;5036971;28;9556;-74
2021/10/16 09:19:09;;;;;;;;;20.33;20.33;;;;;;;;5043330;28;10316;-77
2021/10/16 09:21:38;;;;;;;;;19.00;17.00;;;;;;;;5041084;28;9551;-75
2021/10/16 09:24:10;;;;;;;;;17.33;15.00;;;;;;;;5040854;28;9195;-75
2021/10/16 09:26:40;;;;;;;;;18.00;16.00;;;;;;;;5040083;28;9017;-75
2021/10/16 09:29:08;;;;;;;;;17.33;14.00;;;;;;;;5039271;28;9748;-75
2021/10/16 09:31:38;;;;;;;;;19.50;18.00;;;;;;;;5043009;28;9638;-76
2021/10/16 09:34:08;;;;;;;;;55.25;44.50;;;;;;;;5040922;28;8928;-76
2021/10/16 09:36:36;;;;;;;;;117.50;105.00;;;;;;;;5039266;28;10400;-74
2021/10/16 09:39:06;;;;;;;;;27.67;26.67;;;;;;;;5052450;28;11810;-75
2021/10/16 09:41:37;;;;;;;;;61.00;48.50;;;;;;;;5059833;28;9103;-75
2021/10/16 09:44:05;;;;;;;;;17.00;15.00;;;;;;;;5060473;28;9790;-75
2021/10/16 09:46:33;;;;;;;;;27.25;21.75;;;;;;;;5059439;28;8894;-75
2021/10/16 09:49:09;;;;;;;;;33.50;32.50;;;;;;;;5061256;28;8906;-74
2021/10/16 09:51:52;;;;;;;;;124.25;110.25;;;;;;;;5058955;28;8854;-75
2021/10/16 09:54:19;;;;;;;;;25.25;22.00;;;;;;;;5060886;28;11640;-75
2021/10/16 09:56:47;;;;;;;;;18.25;18.25;;;;;;;;5059406;28;8877;-73
2021/10/16 09:59:18;;;;;;;;;21.25;20.00;;;;;;;;5059219;28;8875;-74
2021/10/16 10:01:46;;;;;;;;;23.00;23.00;;;;;;;;5057991;28;8844;-73
2021/10/16 10:04:18;;;;;;;;;11.75;10.25;;;;;;;;5059437;28;8985;-76
2021/10/16 10:06:47;;;;;;;;;20.50;20.50;;;;;;;;5059507;28;8863;-74
2021/10/16 10:09:15;;;;;;;;;9.50;9.00;;;;;;;;5057824;28;8815;-73
2021/10/16 10:11:47;;;;;;;;;6.50;6.50;;;;;;;;5058978;28;8862;-75
2021/10/16 10:14:17;;;;;;;;;9.25;5.25;;;;;;;;5059084;28;8909;-76
2021/10/16 10:16:45;;;;;;;;;4.50;4.25;;;;;;;;5060558;28;8893;-75
2021/10/16 10:19:14;;;;;;;;;7.00;6.00;;;;;;;;5062889;28;8878;-72
2021/10/16 10:21:42;;;;;;;;;2.75;2.50;;;;;;;;5056916;28;8886;-74
2021/10/16 10:24:11;;;;;;;;;8.25;5.25;;;;;;;;5060410;28;8878;-75
2021/10/16 10:26:39;;;;;;;;;5.25;3.75;;;;;;;;5059872;28;8870;-74
2021/10/16 10:29:08;;;;;;;;;2.25;2.25;;;;;;;;5059682;28;8890;-75
2021/10/16 10:32:03;;;;;;;;;3.75;2.25;;;;;;;;5057035;28;8892;-74
2021/10/16 10:34:54;;;;;;;;;3.00;3.00;;;;;;;;5058154;28;9767;-74
2021/10/16 10:37:21;;;;;;;;;2.00;2.00;;;;;;;;5061269;28;8983;-74
2021/10/16 10:39:54;;;;;;;;;7.00;5.50;;;;;;;;5057162;28;8859;-74
2021/10/16 10:42:46;;;;;;;;;4.00;4.00;;;;;;;;5057167;28;8875;-74
2021/10/16 10:45:33;;;;;;;;;4.75;4.75;;;;;;;;5048824;28;8889;-73
2021/10/16 10:48:06;;;;;;;;;4.25;2.75;;;;;;;;5091369;28;8870;-74
2021/10/16 10:50:50;;;;;;;;;4.00;4.00;;;;;;;;5057445;28;8894;-74
2021/10/16 10:53:36;;;;;;;;;7.25;7.25;;;;;;;;5059528;28;8850;-75
2021/10/16 10:56:06;;;;;;;;;6.75;5.00;;;;;;;;5057184;28;8875;-75
2021/10/16 10:58:58;;;;;;;;;4.25;3.00;;;;;;;;5059858;28;10120;-75
2021/10/16 11:01:49;;;;;;;;;6.25;4.75;;;;;;;;5058174;28;9650;-74
2021/10/16 11:04:32;;;;;;;;;5.25;5.25;;;;;;;;5058746;28;8882;-74
2021/10/16 11:07:03;;;;;;;;;5.00;5.00;;;;;;;;5053640;28;8889;-74
2021/10/16 11:09:30;;;;;;;;;8.50;7.50;;;;;;;;5056146;28;8914;-74
2021/10/16 11:11:57;;;;;;;;;4.20;4.20;;;;;;;;5060230;28;8894;-72
2021/10/16 11:14:30;;;;;;;;;6.00;6.00;;;;;;;;5059788;28;8882;-75
2021/10/16 11:16:59;;;;;;;;;5.00;3.80;;;;;;;;5058889;28;8868;-75
2021/10/16 11:19:27;;;;;;;;;6.00;6.00;;;;;;;;5059902;28;8869;-74
2021/10/16 11:21:55;;;;;;;;;4.00;4.00;;;;;;;;5059867;28;8874;-74
2021/10/16 11:24:25;;;;;;;;;3.00;3.00;;;;;;;;5057500;28;8882;-74
2021/10/16 11:26:56;;;;;;;;;4.00;4.00;;;;;;;;5058522;28;8904;-73
2021/10/16 11:29:31;;;;;;;;;3.00;3.00;;;;;;;;5057868;28;8942;-73
2021/10/16 11:32:15;;;;;;;;;1.00;1.00;;;;;;;;5057578;28;8827;-75
2021/10/16 11:34:54;;;;;;;;;4.60;4.00;;;;;;;;5059924;28;8928;-74
2021/10/16 11:37:36;;;;;;;;;2.20;2.20;;;;;;;;5064202;28;8898;-74
2021/10/16 11:40:08;;;;;;;;;2.60;1.40;;;;;;;;5061007;28;8990;-74
2021/10/16 11:42:37;;;;;;;;;2.40;2.40;;;;;;;;5059416;28;8902;-72
2021/10/16 11:45:11;;;;;;;;;2.80;1.00;;;;;;;;5059230;28;8863;-74
2021/10/16 11:47:39;;;;;;;;;2.00;2.00;;;;;;;;5059092;28;10024;-74
2021/10/16 11:50:17;;;;;;;;;5.00;3.80;;;;;;;;5057778;28;8862;-77
2021/10/16 11:52:45;;;;;;;;;1.00;1.00;;;;;;;;5056924;28;8879;-77
2021/10/16 11:55:25;;;;;;;;;1.80;1.80;;;;;;;;5059696;28;9032;-76
2021/10/16 11:57:52;;;;;;;;;2.00;2.00;;;;;;;;5058054;28;8878;-74
2021/10/16 12:00:26;;;;;;;;;2.00;2.00;;;;;;;;5056093;28;8867;-77
2021/10/16 12:02:54;;;;;;;;;2.20;2.20;;;;;;;;5060689;28;9028;-72
2021/10/16 12:05:23;;;;;;;;;2.60;2.60;;;;;;;;5057544;28;8888;-76
2021/10/16 12:07:51;;;;;;;;;1.60;1.00;;;;;;;;5057232;28;8971;-75
2021/10/16 12:10:38;;;;;;;;;3.00;2.00;;;;;;;;5057173;28;8959;-77
2021/10/16 12:13:08;;;;;;;;;0.00;0.00;;;;;;;;5059324;28;8901;-75
2021/10/16 12:15:39;;;;;;;;;1.00;1.00;;;;;;;;5056609;28;8920;-77
2021/10/16 12:18:07;;;;;;;;;2.00;2.00;;;;;;;;5057900;28;8932;-76
2021/10/16 12:20:44;;;;;;;;;6.00;6.00;;;;;;;;5059992;28;8846;-76
2021/10/16 12:23:12;;;;;;;;;3.40;2.20;;;;;;;;5059057;28;8870;-75
2021/10/16 12:25:49;;;;;;;;;3.20;2.00;;;;;;;;5062091;28;8997;-77
2021/10/16 12:28:17;;;;;;;;;0.00;0.00;;;;;;;;5061826;28;8905;-78
2021/10/16 12:31:04;;;;;;;;;1.80;1.80;;;;;;;;5061556;28;8835;-75
2021/10/16 12:33:32;;;;;;;;;3.60;3.00;;;;;;;;5062361;28;8858;-78
2021/10/16 12:36:04;;;;;;;;;3.40;3.00;;;;;;;;5061216;28;10202;-76
2021/10/16 12:38:47;;;;;;;;;2.00;1.00;;;;;;;;5062161;28;8979;-76
2021/10/16 12:41:39;;;;;;;;;1.00;1.00;;;;;;;;5057971;28;8874;-76
2021/10/16 12:44:14;;;;;;;;;2.00;2.00;;;;;;;;5063016;28;8875;-78
2021/10/16 12:46:41;;;;;;;;;1.40;1.40;;;;;;;;5058555;28;8874;-76
2021/10/16 12:49:10;;;;;;;;;3.60;3.00;;;;;;;;5060230;28;8994;-75
2021/10/16 12:51:40;;;;;;;;;2.00;2.00;;;;;;;;5067825;28;9004;-78
2021/10/16 12:54:07;;;;;;;;;2.00;2.00;;;;;;;;5059053;28;8862;-76
2021/10/16 12:56:36;;;;;;;;;2.00;2.00;;;;;;;;5066073;28;8891;-78
2021/10/16 12:59:04;;;;;;;;;2.00;2.00;;;;;;;;5062944;28;8859;-78
2021/10/16 13:01:33;;;;;;;;;0.00;0.00;;;;;;;;5060702;28;8819;-78
2021/10/16 13:04:00;;;;;;;;;2.60;2.00;;;;;;;;5062815;28;8842;-78
2021/10/16 13:06:28;;;;;;;;;1.40;1.40;;;;;;;;5062910;28;8890;-77
2021/10/16 13:08:55;;;;;;;;;1.00;1.00;;;;;;;;5062753;28;9601;-76
2021/10/16 13:11:22;;;;;;;;;1.00;1.00;;;;;;;;5062033;28;8878;-76
2021/10/16 13:13:51;;;;;;;;;3.40;2.00;;;;;;;;5063250;28;8867;-77
2021/10/16 13:16:18;;;;;;;;;1.80;1.80;;;;;;;;5060918;28;8858;-79
2021/10/16 13:18:46;;;;;;;;;2.80;1.40;;;;;;;;5061376;28;8882;-77
2021/10/16 13:21:13;;;;;;;;;1.80;1.00;;;;;;;;5059449;28;8877;-76
2021/10/16 13:23:41;;;;;;;;;1.00;1.00;;;;;;;;5061702;28;8874;-78
2021/10/16 13:26:08;;;;;;;;;2.80;1.80;;;;;;;;5062623;28;8897;-76
2021/10/16 13:28:35;;;;;;;;;3.80;1.60;;;;;;;;5069900;28;8888;-76
2021/10/16 13:31:04;;;;;;;;;0.80;0.80;;;;;;;;5061879;28;8841;-77
2021/10/16 13:33:31;;;;;;;;;1.40;1.40;;;;;;;;5060055;28;8877;-76
2021/10/16 13:35:59;;;;;;;;;2.00;2.00;;;;;;;;5058614;28;8871;-77
2021/10/16 13:38:26;;;;;;;;;3.40;2.00;;;;;;;;5062404;28;8858;-76
2021/10/16 13:40:54;;;;;;;;;1.40;0.60;;;;;;;;5059562;28;8877;-75
2021/10/16 13:43:22;;;;;;;;;2.00;2.00;;;;;;;;5061993;28;8854;-76
2021/10/16 13:45:49;;;;;;;;;2.00;2.00;;;;;;;;5058945;28;8882;-78
2021/10/16 13:48:18;;;;;;;;;2.60;2.60;;;;;;;;5062511;28;8901;-76
2021/10/16 13:50:45;;;;;;;;;0.40;0.40;;;;;;;;5075569;28;8913;-77
2021/10/16 13:53:13;;;;;;;;;2.20;2.20;;;;;;;;5060576;28;8947;-78
2021/10/16 13:55:40;;;;;;;;;2.80;2.80;;;;;;;;5060419;28;8856;-76
2021/10/16 13:58:08;;;;;;;;;2.60;2.60;;;;;;;;5060877;28;9538;-77
2021/10/16 14:00:35;;;;;;;;;3.00;3.00;;;;;;;;5059652;28;8864;-76
2021/10/16 14:03:02;;;;;;;;;2.60;2.60;;;;;;;;5066944;28;8952;-78
2021/10/16 14:05:31;;;;;;;;;1.80;1.80;;;;;;;;5059613;28;8885;-78
2021/10/16 14:07:58;;;;;;;;;2.60;2.40;;;;;;;;5060067;28;8870;-76
2021/10/16 14:10:26;;;;;;;;;1.40;1.40;;;;;;;;5061673;28;8854;-77
2021/10/16 14:12:53;;;;;;;;;4.00;1.80;;;;;;;;5063419;28;8870;-76
2021/10/16 14:15:20;;;;;;;;;1.40;1.40;;;;;;;;5060771;28;9700;-77
2021/10/16 14:17:48;;;;;;;;;3.00;3.00;;;;;;;;5060042;28;8871;-76
2021/10/16 14:20:15;;;;;;;;;3.00;3.00;;;;;;;;5060084;28;8882;-77
2021/10/16 14:22:44;;;;;;;;;2.00;2.00;;;;;;;;5060912;28;9950;-77
2021/10/16 14:25:11;;;;;;;;;1.80;1.80;;;;;;;;5060392;28;8885;-76
2021/10/16 14:27:41;;;;;;;;;3.00;1.60;;;;;;;;5060639;28;8915;-77
2021/10/16 14:30:09;;;;;;;;;1.60;1.60;;;;;;;;5058547;28;8866;-76
2021/10/16 14:32:37;;;;;;;;;1.00;1.00;;;;;;;;5061404;28;8867;-75
2021/10/16 14:35:05;;;;;;;;;2.00;2.00;;;;;;;;5061980;28;8874;-78
2021/10/16 14:37:33;;;;;;;;;1.20;1.20;;;;;;;;5053060;28;8985;-80
2021/10/16 14:40:02;;;;;;;;;2.60;2.60;;;;;;;;5062615;28;8902;-77
2021/10/16 14:42:29;;;;;;;;;1.40;1.00;;;;;;;;5057794;28;8878;-78
2021/10/16 14:44:56;;;;;;;;;2.60;1.20;;;;;;;;5060981;28;8863;-77